createdAt,value
2023-04-06T00:04:16.100Z,3.42
2023-04-06T00:09:18.666Z,3.38
2023-04-06T00:14:21.501Z,2.63
2023-04-06T00:19:23.910Z,2.36
2023-04-06T00:24:26.498Z,2.73
2023-04-06T00:29:28.901Z,3.12
2023-04-06T00:34:31.296Z,2.30
2023-04-06T00:39:33.679Z,3.00
2023-04-06T00:44:36.120Z,3.10
2023-04-06T00:49:38.534Z,1.78
2023-04-06T00:54:40.996Z,2.26
2023-04-06T00:59:44.540Z,1.81
2023-04-06T01:04:48.658Z,2.58
2023-04-06T01:09:59.643Z,2.88
2023-04-06T01:15:07.144Z,2.17
2023-04-06T01:20:11.494Z,2.28
2023-04-06T01:25:14.432Z,2.71
2023-04-06T01:30:28.431Z,2.63
2023-04-06T01:35:37.889Z,2.12
2023-04-06T01:40:59.124Z,2.24
2023-04-06T01:46:06.626Z,1.94
2023-04-06T01:51:15.844Z,2.36
2023-04-06T01:56:30.084Z,2.51
2023-04-06T02:01:39.499Z,2.06
2023-04-06T02:06:42.370Z,1.67
2023-04-06T02:11:48.198Z,0.50
2023-04-06T02:16:50.928Z,-1.01
2023-04-06T02:21:53.548Z,-1.37
2023-04-06T02:26:55.953Z,1.49
2023-04-06T02:31:58.530Z,2.24
2023-04-06T02:37:01.348Z,1.54
2023-04-06T02:42:04.050Z,-0.05
2023-04-06T02:47:06.698Z,-1.21
2023-04-06T02:52:09.325Z,2.15
2023-04-06T02:57:13.065Z,-2.10
2023-04-06T03:02:20.158Z,2.15
2023-04-06T03:07:23.713Z,-0.09
2023-04-06T03:12:26.249Z,-2.96
2023-04-06T03:18:04.359Z,1.43
2023-04-06T03:23:22.998Z,1.25
2023-04-06T03:28:30.126Z,-0.81
2023-04-06T03:33:35.886Z,-2.13
2023-04-06T03:38:40.113Z,1.98
2023-04-06T03:43:47.528Z,2.16
2023-04-06T03:48:50.448Z,1.39
2023-04-06T03:53:54.691Z,-0.48
2023-04-06T03:58:57.270Z,1.05
2023-04-06T04:03:59.994Z,0.68
2023-04-06T04:09:02.597Z,-0.14
2023-04-06T04:14:07.500Z,2.37
2023-04-06T04:19:10.529Z,-1.62
2023-04-06T04:24:13.938Z,-0.27
2023-04-06T04:29:16.906Z,-0.54
2023-04-06T04:34:22.145Z,1.31
2023-04-06T04:39:26.886Z,2.85
2023-04-06T04:44:45.076Z,-0.03
2023-04-06T04:49:59.595Z,0.35
2023-04-06T04:55:07.913Z,-1.31
2023-04-06T05:00:13.916Z,-0.26
2023-04-06T05:05:19.382Z,0.07
2023-04-06T05:10:22.639Z,0.83
2023-04-06T05:15:36.146Z,1.26
2023-04-06T05:20:48.435Z,0.64
2023-04-06T05:25:51.640Z,-1.67
2023-04-06T05:30:58.600Z,1.56
2023-04-06T05:36:05.120Z,1.18
2023-04-06T05:41:08.242Z,3.58
2023-04-06T05:46:12.552Z,1.31
2023-04-06T05:51:17.762Z,0.74
2023-04-06T05:56:25.230Z,0.96
2023-04-06T06:01:28.308Z,2.67
2023-04-06T06:06:33.919Z,3.40
2023-04-06T06:12:05.472Z,4.16
2023-04-06T06:17:08.367Z,1.89
2023-04-06T06:22:12.042Z,2.08
2023-04-06T06:27:18.591Z,2.21
2023-04-06T06:32:21.786Z,4.24
2023-04-06T06:37:29.286Z,4.54
2023-04-06T06:42:33.816Z,5.05
2023-04-06T06:47:43.991Z,5.11
2023-04-06T06:52:47.894Z,5.00
2023-04-06T06:57:50.716Z,4.95
2023-04-06T07:02:53.544Z,4.58
2023-04-06T07:07:57.210Z,4.97
2023-04-06T07:13:01.765Z,3.77
2023-04-06T07:18:04.779Z,6.00
2023-04-06T07:23:07.924Z,6.96
2023-04-06T07:28:10.484Z,7.09
2023-04-06T07:33:13.534Z,7.54
2023-04-06T07:38:18.000Z,7.86
2023-04-06T07:43:21.127Z,7.57
2023-04-06T07:48:24.990Z,7.50
2023-04-06T07:53:27.848Z,8.08
2023-04-06T07:58:30.338Z,8.33
2023-04-06T08:03:35.455Z,5.37
2023-04-06T08:08:38.196Z,8.51
2023-04-06T08:13:40.720Z,5.93
2023-04-06T08:18:43.325Z,6.58
2023-04-06T08:23:47.414Z,9.68
2023-04-06T08:28:49.986Z,8.42
2023-04-06T08:33:52.460Z,9.82
2023-04-06T08:38:55.342Z,10.27
2023-04-06T08:44:01.753Z,10.51
2023-04-06T08:49:08.106Z,10.62
2023-04-06T08:54:10.985Z,10.92
2023-04-06T08:59:13.512Z,11.17
2023-04-06T09:04:17.033Z,10.83
2023-04-06T09:09:20.720Z,11.25
2023-04-06T09:14:38.986Z,11.54
2023-04-06T09:19:48.155Z,11.55
2023-04-06T09:24:54.828Z,11.83
2023-04-06T09:30:15.032Z,11.14
2023-04-06T09:35:17.940Z,12.11
2023-04-06T09:40:22.530Z,11.91
2023-04-06T09:45:25.359Z,11.70
2023-04-06T09:50:28.555Z,11.73
2023-04-06T09:55:34.746Z,12.28
2023-04-06T10:00:54.537Z,11.94
2023-04-06T10:06:00.022Z,10.32
2023-04-06T10:11:03.706Z,11.08
2023-04-06T10:16:07.714Z,10.93
2023-04-06T10:21:16.085Z,12.90
2023-04-06T10:26:21.986Z,12.93
2023-04-06T10:31:28.786Z,11.33
2023-04-06T10:36:35.608Z,13.07
2023-04-06T10:41:44.511Z,12.92
2023-04-06T10:46:55.074Z,11.61
2023-04-06T10:51:58.713Z,12.92
2023-04-06T10:57:02.275Z,12.58
2023-04-06T11:02:04.699Z,13.22
2023-04-06T11:07:07.206Z,13.10
2023-04-06T11:12:09.612Z,13.70
2023-04-06T11:17:12.203Z,12.79
2023-04-06T11:22:14.699Z,13.71
2023-04-06T11:27:17.828Z,13.97
2023-04-06T11:32:23.667Z,13.84
2023-04-06T11:37:29.362Z,13.67
2023-04-06T11:42:31.979Z,13.33
2023-04-06T11:47:36.707Z,13.80
2023-04-06T11:52:40.915Z,13.98
2023-04-06T11:57:44.093Z,14.00
2023-04-06T12:02:50.411Z,13.91
2023-04-06T12:07:53.003Z,14.06
2023-04-06T12:12:55.695Z,13.76
2023-04-06T12:17:58.751Z,13.23
2023-04-06T12:23:01.512Z,14.11
2023-04-06T12:28:04.039Z,13.96
2023-04-06T12:33:07.597Z,13.58
2023-04-06T12:38:10.665Z,14.10
2023-04-06T12:43:14.570Z,13.89
2023-04-06T12:48:17.210Z,13.83
2023-04-06T12:53:20.062Z,13.34
2023-04-06T12:58:23.909Z,14.12
2023-04-06T13:03:27.008Z,13.04
2023-04-06T13:08:29.622Z,13.35
2023-04-06T13:13:32.739Z,13.90
2023-04-06T13:18:36.145Z,14.13
2023-04-06T13:23:38.608Z,13.30
2023-04-06T13:28:41.584Z,14.10
2023-04-06T13:33:44.210Z,13.51
2023-04-06T13:38:46.781Z,13.88
2023-04-06T13:43:49.553Z,12.43
2023-04-06T13:48:52.451Z,13.85
2023-04-06T13:53:55.114Z,12.58
2023-04-06T13:58:58.251Z,13.43
2023-04-06T14:04:01.275Z,13.94
2023-04-06T14:09:03.884Z,10.74
2023-04-06T14:14:06.425Z,10.24
2023-04-06T14:19:08.812Z,11.01
2023-04-06T14:24:11.489Z,13.00
2023-04-06T14:29:13.970Z,12.03
2023-04-06T14:34:18.259Z,13.33
2023-04-06T14:39:20.977Z,12.77
2023-04-06T14:44:28.448Z,13.06
2023-04-06T14:55:55.576Z,9.89
2023-04-06T15:01:18.300Z,9.15
2023-04-06T15:06:24.257Z,8.12
2023-04-06T15:11:27.503Z,12.52
2023-04-06T15:16:33.886Z,10.00
2023-04-06T15:21:36.620Z,12.29
2023-04-06T15:26:39.507Z,9.93
2023-04-06T15:32:03.311Z,11.09
2023-04-06T15:37:26.357Z,9.07
2023-04-06T15:42:32.377Z,9.28
2023-04-06T15:47:41.795Z,8.42
2023-04-06T15:52:44.456Z,9.73
2023-04-06T15:57:46.987Z,10.87
2023-04-06T16:02:49.628Z,11.45
2023-04-06T16:07:52.201Z,11.32
2023-04-06T16:12:54.602Z,10.03
2023-04-06T16:17:57.289Z,10.89
2023-04-06T16:22:59.841Z,10.81
2023-04-06T16:28:02.307Z,9.18
2023-04-06T16:33:04.769Z,10.11
2023-04-06T16:38:07.296Z,10.07
2023-04-06T16:43:10.369Z,10.48
2023-04-06T16:48:13.526Z,10.35
2023-04-06T16:53:17.007Z,9.46
2023-04-06T16:58:19.493Z,10.12
2023-04-06T17:03:23.928Z,9.58
2023-04-06T17:08:29.832Z,8.63
2023-04-06T17:13:32.289Z,9.06
2023-04-06T17:18:35.294Z,8.62
2023-04-06T17:23:37.828Z,8.36
2023-04-06T17:28:40.743Z,9.57
2023-04-06T17:33:43.581Z,9.46
2023-04-06T17:38:46.762Z,8.18
2023-04-06T17:43:49.241Z,8.96
2023-04-06T17:48:53.461Z,9.11
2023-04-06T17:53:56.018Z,8.49
2023-04-06T17:58:58.471Z,7.97
2023-04-06T18:04:01.322Z,8.80
2023-04-06T18:09:04.051Z,8.33
2023-04-06T18:14:08.772Z,8.60
2023-04-06T18:19:11.428Z,8.51
2023-04-06T18:24:27.249Z,8.11
2023-04-06T18:29:36.467Z,7.13
2023-04-06T18:34:39.901Z,7.94
2023-04-06T18:39:43.652Z,7.39
2023-04-06T18:44:46.962Z,7.88
2023-04-06T18:49:50.695Z,7.96
2023-04-06T19:00:57.900Z,7.72
2023-04-06T19:06:00.782Z,5.59
2023-04-06T19:11:08.203Z,5.33
2023-04-06T19:16:11.574Z,7.30
2023-04-06T19:21:24.687Z,7.42
2023-04-06T19:26:30.805Z,6.66
2023-04-06T19:31:33.242Z,6.84
2023-04-06T19:36:35.789Z,7.10
2023-04-06T19:41:39.671Z,5.97
2023-04-06T19:46:43.025Z,6.75
2023-04-06T19:51:45.655Z,6.78
2023-04-06T19:56:48.635Z,6.39
2023-04-06T20:01:51.588Z,6.59
2023-04-06T20:06:54.123Z,6.49
2023-04-06T20:11:56.754Z,6.38
2023-04-06T20:16:59.295Z,6.30
2023-04-06T20:22:03.955Z,5.73
2023-04-06T20:27:06.627Z,4.45
2023-04-06T20:32:12.753Z,5.39
2023-04-06T20:37:15.762Z,5.80
2023-04-06T20:42:22.979Z,5.44
2023-04-06T20:47:25.869Z,5.82
2023-04-06T20:52:28.324Z,5.74
2023-04-06T20:57:30.808Z,3.91
2023-04-06T21:02:33.449Z,5.18
2023-04-06T21:07:38.345Z,5.15
2023-04-06T21:12:40.665Z,4.97
2023-04-06T21:17:43.137Z,5.27
2023-04-06T21:22:45.528Z,5.07
2023-04-06T21:27:47.819Z,4.38
2023-04-06T21:32:50.260Z,4.66
2023-04-06T21:37:52.620Z,3.95
2023-04-06T21:42:54.945Z,4.65
2023-04-06T21:47:57.303Z,4.94
2023-04-06T21:52:59.700Z,4.31
2023-04-06T21:58:02.180Z,4.63
2023-04-06T22:03:04.972Z,4.40
2023-04-06T22:08:09.661Z,4.45
2023-04-06T22:13:15.374Z,3.55
2023-04-06T22:18:17.850Z,4.17
2023-04-06T22:23:21.387Z,2.73
2023-04-06T22:28:23.908Z,4.10
2023-04-06T22:33:26.208Z,4.00
2023-04-06T22:38:28.584Z,3.89
2023-04-06T22:43:33.781Z,3.93
2023-04-06T22:48:36.294Z,3.86
2023-04-06T22:53:38.598Z,2.69
2023-04-06T22:58:41.017Z,3.72
2023-04-06T23:03:43.436Z,3.24
2023-04-06T23:08:47.490Z,3.17
2023-04-06T23:13:49.958Z,3.23
2023-04-06T23:18:52.309Z,2.99
2023-04-06T23:23:54.656Z,3.45
2023-04-06T23:28:57.009Z,3.40
2023-04-06T23:33:59.347Z,2.93
2023-04-06T23:39:01.773Z,3.23
2023-04-06T23:44:04.160Z,2.80
2023-04-06T23:49:06.845Z,1.44
2023-04-06T23:54:09.954Z,2.64
2023-04-06T23:59:12.329Z,2.92
